createdAt,value
2023-05-10T00:01:06.017Z,0.80
2023-05-10T00:02:38.948Z,0.80
2023-05-10T00:04:11.954Z,0.70
2023-05-10T00:05:44.823Z,0.57
2023-05-10T00:07:19.008Z,0.80
2023-05-10T00:08:51.701Z,0.50
2023-05-10T00:10:24.624Z,0.80
2023-05-10T00:11:56.416Z,0.57
2023-05-10T00:13:29.304Z,0.60
2023-05-10T00:15:02.088Z,0.70
2023-05-10T00:16:34.796Z,0.80
2023-05-10T00:18:06.685Z,0.50
2023-05-10T00:19:39.378Z,0.53
2023-05-10T00:21:12.120Z,0.63
2023-05-10T00:22:46.173Z,0.50
2023-05-10T00:24:18.883Z,0.40
2023-05-10T00:25:50.624Z,0.40
2023-05-10T00:27:23.315Z,0.50
2023-05-10T00:28:56.050Z,0.70
2023-05-10T00:30:29.236Z,0.50
2023-05-10T00:32:01.934Z,0.60
2023-05-10T00:33:33.730Z,0.50
2023-05-10T00:35:07.126Z,0.70
2023-05-10T00:36:39.805Z,0.50
2023-05-10T00:38:12.888Z,0.50
2023-05-10T00:39:45.567Z,0.47
2023-05-10T00:41:18.384Z,0.60
2023-05-10T00:42:51.060Z,0.50
2023-05-10T00:44:22.821Z,0.53
2023-05-10T00:45:56.122Z,0.53
2023-05-10T00:47:29.376Z,0.70
2023-05-10T00:49:02.212Z,0.67
2023-05-10T00:50:35.737Z,0.80
2023-05-10T00:52:07.505Z,0.80
2023-05-10T00:53:42.352Z,0.77
2023-05-10T00:55:15.124Z,0.70
2023-05-10T00:56:49.855Z,1.00
2023-05-10T00:58:24.227Z,0.60
2023-05-10T00:59:56.929Z,0.70
2023-05-10T01:01:30.525Z,0.70
2023-05-10T01:03:02.598Z,0.80
2023-05-10T01:04:36.626Z,0.60
2023-05-10T01:06:10.845Z,0.70
2023-05-10T01:07:43.538Z,0.80
2023-05-10T01:09:18.044Z,0.80
2023-05-10T01:10:51.077Z,0.60
2023-05-10T01:12:23.418Z,0.80
2023-05-10T01:13:58.961Z,0.60
2023-05-10T01:15:32.796Z,0.63
2023-05-10T01:17:06.918Z,0.70
2023-05-10T01:18:40.992Z,0.77
2023-05-10T01:20:14.675Z,0.70
2023-05-10T01:21:53.838Z,0.73
2023-05-10T01:23:43.798Z,0.60
2023-05-10T01:25:46.260Z,0.90
2023-05-10T01:28:02.641Z,0.53
2023-05-10T01:30:14.163Z,0.50
2023-05-10T01:32:22.502Z,0.90
2023-05-10T01:34:00.436Z,0.60
2023-05-10T01:35:38.281Z,0.70
2023-05-10T01:37:17.180Z,0.60
2023-05-10T01:38:55.247Z,0.60
2023-05-10T01:40:34.273Z,0.77
2023-05-10T01:42:12.418Z,0.50
2023-05-10T01:43:54.288Z,0.50
2023-05-10T01:45:33.342Z,0.60
2023-05-10T01:47:08.668Z,0.70
2023-05-10T01:48:48.205Z,0.60
2023-05-10T01:50:24.603Z,0.77
2023-05-10T01:52:05.837Z,0.67
2023-05-10T01:53:40.567Z,0.80
2023-05-10T01:55:16.855Z,0.60
2023-05-10T01:57:05.041Z,0.80
2023-05-10T01:58:41.838Z,0.70
2023-05-10T02:00:15.679Z,0.70
2023-05-10T02:01:49.500Z,0.70
2023-05-10T02:03:25.161Z,0.90
2023-05-10T02:04:59.252Z,0.90
2023-05-10T02:06:33.872Z,0.90
2023-05-10T02:08:09.661Z,0.90
2023-05-10T02:09:48.399Z,0.87
2023-05-10T02:11:22.928Z,0.97
2023-05-10T02:12:56.196Z,0.80
2023-05-10T02:14:29.510Z,0.60
2023-05-10T02:16:04.994Z,0.80
2023-05-10T02:17:39.640Z,0.97
2023-05-10T02:19:13.925Z,0.80
2023-05-10T02:20:48.995Z,1.13
2023-05-10T02:22:23.074Z,0.90
2023-05-10T02:23:57.646Z,0.90
2023-05-10T02:25:31.817Z,1.20
2023-05-10T02:27:05.596Z,1.30
2023-05-10T02:28:39.356Z,1.10
2023-05-10T02:30:12.625Z,1.10
2023-05-10T02:31:46.054Z,1.20
2023-05-10T02:33:20.294Z,1.10
2023-05-10T02:34:54.428Z,1.30
2023-05-10T02:36:29.381Z,1.10
2023-05-10T02:38:03.279Z,1.40
2023-05-10T02:39:36.872Z,1.13
2023-05-10T02:41:11.809Z,1.27
2023-05-10T02:42:46.623Z,1.00
2023-05-10T02:44:20.895Z,0.90
2023-05-10T02:45:53.904Z,1.00
2023-05-10T02:47:26.673Z,1.10
2023-05-10T02:48:59.509Z,0.90
2023-05-10T02:50:35.080Z,1.00
2023-05-10T02:52:10.207Z,1.00
2023-05-10T02:53:47.758Z,1.10
2023-05-10T02:55:24.184Z,1.00
2023-05-10T02:57:01.468Z,1.20
2023-05-10T02:58:34.264Z,1.20
2023-05-10T03:00:08.414Z,1.20
2023-05-10T03:01:41.176Z,1.47
2023-05-10T03:03:13.926Z,1.00
2023-05-10T03:04:45.718Z,1.10
2023-05-10T03:06:18.429Z,1.20
2023-05-10T03:07:52.934Z,1.17
2023-05-10T03:09:24.782Z,1.30
2023-05-10T03:11:11.332Z,1.30
2023-05-10T03:12:54.184Z,1.50
2023-05-10T03:14:38.542Z,1.10
2023-05-10T03:16:17.577Z,1.20
2023-05-10T03:17:56.296Z,1.10
2023-05-10T03:19:37.007Z,1.10
2023-05-10T03:21:13.369Z,1.30
2023-05-10T03:22:50.804Z,1.10
2023-05-10T03:24:29.147Z,1.13
2023-05-10T03:26:02.867Z,1.13
2023-05-10T03:27:37.294Z,1.20
2023-05-10T03:29:10.535Z,1.20
2023-05-10T03:30:44.726Z,1.30
2023-05-10T03:32:16.527Z,1.10
2023-05-10T03:33:50.104Z,1.37
2023-05-10T03:35:22.857Z,1.30
2023-05-10T03:36:55.604Z,1.17
2023-05-10T03:38:30.223Z,1.40
2023-05-10T03:40:05.542Z,1.40
2023-05-10T03:41:38.237Z,1.80
2023-05-10T03:43:10.945Z,1.50
2023-05-10T03:44:43.670Z,1.50
2023-05-10T03:46:15.570Z,1.60
2023-05-10T03:47:48.310Z,1.67
2023-05-10T03:49:20.076Z,1.37
2023-05-10T03:50:52.771Z,1.50
2023-05-10T03:52:24.490Z,1.50
2023-05-10T03:53:57.449Z,1.60
2023-05-10T03:55:35.355Z,1.73
2023-05-10T03:57:07.127Z,1.63
2023-05-10T03:58:39.807Z,1.80
2023-05-10T04:00:12.559Z,1.73
2023-05-10T04:01:45.331Z,1.60
2023-05-10T04:03:17.189Z,1.70
2023-05-10T04:04:50.119Z,1.83
2023-05-10T04:06:21.908Z,1.83
2023-05-10T04:07:54.617Z,2.00
2023-05-10T04:09:27.347Z,1.67
2023-05-10T04:11:09.326Z,1.70
2023-05-10T04:12:42.031Z,1.63
2023-05-10T04:14:13.768Z,1.80
2023-05-10T04:15:46.468Z,1.83
2023-05-10T04:17:19.151Z,1.80
2023-05-10T04:18:51.886Z,2.00
2023-05-10T04:20:24.564Z,1.70
2023-05-10T04:21:57.262Z,2.00
2023-05-10T04:23:30.028Z,1.90
2023-05-10T04:25:02.719Z,2.37
2023-05-10T04:26:36.825Z,2.00
2023-05-10T04:28:08.778Z,2.40
2023-05-10T04:29:41.457Z,2.13
2023-05-10T04:31:14.246Z,2.30
2023-05-10T04:32:46.983Z,2.30
2023-05-10T04:34:19.767Z,2.20
2023-05-10T04:35:52.460Z,2.20
2023-05-10T04:37:25.150Z,2.40
2023-05-10T04:38:56.940Z,2.30
2023-05-10T04:40:29.660Z,2.30
2023-05-10T04:42:06.543Z,2.43
2023-05-10T04:43:39.804Z,2.47
2023-05-10T04:45:12.727Z,2.40
2023-05-10T04:46:45.518Z,2.50
2023-05-10T04:48:17.327Z,2.30
2023-05-10T04:49:50.008Z,2.40
2023-05-10T04:51:22.700Z,2.43
2023-05-10T04:52:55.364Z,2.43
2023-05-10T04:54:28.081Z,2.33
2023-05-10T04:55:59.851Z,2.33
2023-05-10T04:57:33.877Z,2.53
2023-05-10T04:59:06.574Z,2.60
2023-05-10T05:00:39.290Z,2.50
2023-05-10T05:02:12.015Z,2.50
2023-05-10T05:03:44.766Z,2.80
2023-05-10T05:05:17.608Z,2.90
2023-05-10T05:06:52.975Z,3.20
2023-05-10T05:08:26.925Z,2.80
2023-05-10T05:09:59.604Z,3.30
2023-05-10T05:11:32.285Z,3.00
2023-05-10T05:13:06.442Z,2.90
2023-05-10T05:14:39.134Z,3.30
2023-05-10T05:16:12.146Z,3.20
2023-05-10T05:17:44.950Z,3.10
2023-05-10T05:19:17.776Z,3.20
2023-05-10T05:20:50.497Z,3.10
2023-05-10T05:22:28.202Z,2.90
2023-05-10T05:24:00.998Z,3.23
2023-05-10T05:25:33.744Z,3.30
2023-05-10T05:27:06.615Z,2.90
2023-05-10T05:28:40.708Z,3.10
2023-05-10T05:30:13.880Z,2.67
2023-05-10T05:31:46.734Z,2.80
2023-05-10T05:33:19.586Z,3.00
2023-05-10T05:34:52.506Z,4.10
2023-05-10T05:36:25.346Z,3.27
2023-05-10T05:37:58.166Z,3.07
2023-05-10T05:39:30.858Z,3.13
2023-05-10T05:41:03.959Z,2.97
2023-05-10T05:42:36.916Z,2.90
2023-05-10T05:44:10.949Z,3.33
2023-05-10T05:45:43.799Z,3.00
2023-05-10T05:47:16.541Z,2.57
2023-05-10T05:48:49.248Z,2.60
2023-05-10T05:50:21.945Z,2.57
2023-05-10T05:51:54.670Z,2.70
2023-05-10T05:53:27.535Z,2.67
2023-05-10T05:55:00.231Z,2.50
2023-05-10T05:56:32.947Z,2.43
2023-05-10T05:58:05.654Z,2.40
2023-05-10T05:59:42.795Z,2.60
2023-05-10T06:01:15.488Z,2.90
2023-05-10T06:02:48.853Z,2.70
2023-05-10T06:04:21.799Z,2.80
2023-05-10T06:05:54.553Z,2.53
2023-05-10T06:07:27.453Z,2.30
2023-05-10T06:09:00.139Z,2.57
2023-05-10T06:10:32.854Z,2.57
2023-05-10T06:12:06.035Z,2.40
2023-05-10T06:13:38.775Z,2.50
2023-05-10T06:15:13.602Z,2.20
2023-05-10T06:16:46.503Z,2.53
2023-05-10T06:18:19.219Z,2.50
2023-05-10T06:19:51.907Z,2.37
2023-05-10T06:21:24.608Z,2.30
2023-05-10T06:22:57.305Z,2.50
2023-05-10T06:24:29.992Z,2.20
2023-05-10T06:26:02.728Z,2.27
2023-05-10T06:27:35.633Z,2.60
2023-05-10T06:29:08.314Z,1.97
2023-05-10T06:30:42.538Z,2.53
2023-05-10T06:32:15.225Z,2.20
2023-05-10T06:33:47.908Z,2.20
2023-05-10T06:35:20.648Z,2.10
2023-05-10T06:36:53.759Z,2.10
2023-05-10T06:38:26.716Z,1.93
2023-05-10T06:39:59.386Z,2.03
2023-05-10T06:41:32.106Z,2.27
2023-05-10T06:43:04.807Z,2.10
2023-05-10T06:44:37.553Z,2.40
2023-05-10T06:46:11.583Z,2.40
2023-05-10T06:47:44.470Z,2.20
2023-05-10T06:49:17.272Z,2.30
2023-05-10T06:50:49.955Z,2.50
2023-05-10T06:52:22.655Z,2.43
2023-05-10T06:53:55.354Z,2.30
2023-05-10T06:55:28.231Z,2.30
2023-05-10T06:57:02.537Z,2.53
2023-05-10T06:58:36.589Z,2.50
2023-05-10T07:00:10.792Z,2.40
2023-05-10T07:01:44.926Z,2.60
2023-05-10T07:03:18.032Z,2.50
2023-05-10T07:04:51.052Z,2.20
2023-05-10T07:06:32.976Z,2.20
2023-05-10T07:08:06.390Z,2.10
2023-05-10T07:09:39.079Z,2.47
2023-05-10T07:11:12.085Z,2.00
2023-05-10T07:12:45.033Z,2.10
2023-05-10T07:14:17.856Z,2.20
2023-05-10T07:15:50.821Z,1.87
2023-05-10T07:17:25.025Z,2.30
2023-05-10T07:18:57.962Z,2.20
2023-05-10T07:20:30.635Z,2.20
2023-05-10T07:22:03.341Z,2.30
2023-05-10T07:23:36.029Z,2.40
2023-05-10T07:25:09.502Z,2.27
2023-05-10T07:26:42.209Z,2.30
2023-05-10T07:28:15.334Z,2.60
2023-05-10T07:29:48.007Z,2.10
2023-05-10T07:31:20.687Z,2.37
2023-05-10T07:32:54.867Z,2.50
2023-05-10T07:34:27.656Z,2.50
2023-05-10T07:36:00.413Z,2.40
2023-05-10T07:37:33.145Z,2.30
2023-05-10T07:39:06.225Z,2.47
2023-05-10T07:40:39.408Z,2.23
2023-05-10T07:42:12.173Z,2.20
2023-05-10T07:43:45.178Z,2.23
2023-05-10T07:45:18.217Z,2.10
2023-05-10T07:46:51.176Z,2.20
2023-05-10T07:48:25.233Z,2.10
2023-05-10T07:49:57.923Z,1.90
2023-05-10T07:51:30.613Z,1.83
2023-05-10T07:53:03.334Z,1.70
2023-05-10T07:54:36.251Z,1.80
2023-05-10T07:56:23.504Z,2.10
2023-05-10T07:57:56.266Z,1.87
2023-05-10T07:59:28.979Z,1.80
2023-05-10T08:01:01.694Z,1.73
2023-05-10T08:02:34.946Z,1.80
2023-05-10T08:04:09.802Z,1.90
2023-05-10T08:05:42.702Z,1.67
2023-05-10T08:07:15.424Z,1.60
2023-05-10T08:08:50.385Z,1.70
2023-05-10T08:10:23.111Z,1.90
2023-05-10T08:11:55.997Z,1.50
2023-05-10T08:13:28.743Z,1.60
2023-05-10T08:15:01.480Z,1.50
2023-05-10T08:16:35.275Z,1.60
2023-05-10T08:18:08.029Z,1.40
2023-05-10T08:19:42.321Z,1.70
2023-05-10T08:21:15.406Z,1.43
2023-05-10T08:22:50.008Z,1.30
2023-05-10T08:24:24.698Z,1.37
2023-05-10T08:25:59.760Z,1.70
2023-05-10T08:27:32.437Z,1.50
2023-05-10T08:29:05.277Z,1.50
2023-05-10T08:30:37.965Z,1.53
2023-05-10T08:32:10.767Z,1.50
2023-05-10T08:33:44.511Z,1.30
2023-05-10T08:35:19.176Z,1.30
2023-05-10T08:36:51.916Z,1.40
2023-05-10T08:38:24.631Z,1.30
2023-05-10T08:39:57.298Z,1.27
2023-05-10T08:41:31.670Z,1.30
2023-05-10T08:43:08.070Z,1.40
2023-05-10T08:44:41.189Z,1.10
2023-05-10T08:46:17.785Z,1.10
2023-05-10T08:47:51.304Z,1.10
2023-05-10T08:49:24.929Z,0.97
2023-05-10T08:51:02.870Z,0.90
2023-05-10T08:52:39.898Z,0.87
2023-05-10T08:54:13.456Z,1.00
2023-05-10T08:55:46.344Z,1.00
2023-05-10T08:57:20.756Z,1.00
2023-05-10T08:58:53.644Z,1.10
2023-05-10T09:00:26.520Z,0.80
2023-05-10T09:02:00.747Z,0.70
2023-05-10T09:03:33.872Z,0.80
2023-05-10T09:05:07.640Z,0.70
2023-05-10T09:06:41.797Z,0.80
2023-05-10T09:08:17.090Z,0.90
2023-05-10T09:09:50.840Z,0.77
2023-05-10T09:11:24.123Z,0.70
2023-05-10T09:12:59.419Z,0.80
2023-05-10T09:14:34.809Z,0.70
2023-05-10T09:16:20.561Z,0.70
2023-05-10T09:17:56.285Z,0.70
2023-05-10T09:19:30.163Z,0.60
2023-05-10T09:21:02.868Z,0.60
2023-05-10T09:22:37.110Z,0.70
2023-05-10T09:24:10.764Z,1.03
2023-05-10T09:25:44.006Z,0.70
2023-05-10T09:27:16.688Z,0.73
2023-05-10T09:28:54.281Z,0.90
2023-05-10T09:30:28.614Z,0.80
2023-05-10T09:32:01.664Z,0.90
2023-05-10T09:33:46.285Z,0.80
2023-05-10T09:35:20.476Z,0.70
2023-05-10T09:36:54.846Z,0.70
2023-05-10T09:38:28.895Z,0.70
2023-05-10T09:40:01.574Z,0.73
2023-05-10T09:41:35.701Z,0.80
2023-05-10T09:43:09.801Z,1.00
2023-05-10T09:44:44.315Z,0.90
2023-05-10T09:46:17.859Z,0.80
2023-05-10T09:47:50.869Z,0.87
2023-05-10T09:49:24.305Z,0.90
2023-05-10T09:50:59.272Z,0.90
2023-05-10T09:52:32.470Z,0.83
2023-05-10T09:54:14.228Z,0.83
2023-05-10T09:55:50.186Z,1.00
2023-05-10T09:57:23.965Z,0.80
2023-05-10T09:59:05.217Z,0.80
2023-05-10T10:00:38.970Z,0.80
2023-05-10T10:02:12.051Z,0.90
2023-05-10T10:03:45.075Z,0.80
2023-05-10T10:05:18.319Z,0.97
2023-05-10T10:07:02.508Z,0.80
2023-05-10T10:08:35.550Z,0.70
2023-05-10T10:10:13.171Z,0.90
2023-05-10T10:11:45.909Z,1.00
2023-05-10T10:13:18.849Z,0.77
2023-05-10T10:14:52.712Z,0.80
2023-05-10T10:16:26.584Z,0.70
2023-05-10T10:17:59.378Z,0.77
2023-05-10T10:19:34.715Z,0.87
2023-05-10T10:21:09.165Z,0.80
2023-05-10T10:22:41.923Z,0.80
2023-05-10T10:24:14.842Z,1.00
2023-05-10T10:25:50.265Z,0.93
2023-05-10T10:27:28.962Z,1.00
2023-05-10T10:29:12.203Z,1.00
2023-05-10T10:30:46.819Z,1.10
2023-05-10T10:32:27.838Z,1.23
2023-05-10T10:34:03.996Z,1.07
2023-05-10T10:35:37.922Z,0.90
2023-05-10T10:37:10.653Z,1.10
2023-05-10T10:39:02.363Z,1.20
2023-05-10T10:40:36.152Z,1.10
2023-05-10T10:42:10.180Z,1.00
2023-05-10T10:43:42.888Z,1.10
2023-05-10T10:45:16.035Z,0.90
2023-05-10T10:47:01.570Z,0.90
2023-05-10T10:48:34.338Z,0.80
2023-05-10T10:50:10.247Z,0.80
2023-05-10T10:52:15.632Z,0.80
2023-05-10T10:53:50.459Z,0.80
2023-05-10T10:55:25.785Z,0.80
2023-05-10T10:57:15.526Z,0.90
2023-05-10T10:58:54.410Z,0.90
2023-05-10T11:00:29.649Z,0.70
2023-05-10T11:02:03.576Z,0.70
2023-05-10T11:03:36.253Z,0.97
2023-05-10T11:05:42.970Z,0.77
2023-05-10T11:07:19.447Z,0.67
2023-05-10T11:08:53.860Z,0.60
2023-05-10T11:10:28.148Z,0.60
2023-05-10T11:12:01.309Z,0.90
2023-05-10T11:13:36.932Z,0.80
2023-05-10T11:15:11.561Z,1.00
2023-05-10T11:16:45.414Z,0.90
2023-05-10T11:18:22.454Z,0.97
2023-05-10T11:20:16.762Z,0.73
2023-05-10T11:21:51.423Z,1.10
2023-05-10T11:23:24.393Z,0.80
2023-05-10T11:25:00.168Z,0.70
2023-05-10T11:26:34.378Z,0.80
2023-05-10T11:28:07.898Z,0.70
2023-05-10T11:29:41.931Z,0.80
2023-05-10T11:31:16.092Z,0.73
2023-05-10T11:32:49.225Z,0.80
2023-05-10T11:34:26.005Z,0.70
2023-05-10T11:35:58.795Z,0.70
2023-05-10T11:37:33.188Z,0.60
2023-05-10T11:39:06.560Z,0.87
2023-05-10T11:40:40.376Z,0.60
2023-05-10T11:42:14.447Z,0.70
2023-05-10T11:43:49.789Z,0.70
2023-05-10T11:45:25.982Z,0.53
2023-05-10T11:47:00.760Z,0.80
2023-05-10T11:48:33.917Z,0.90
2023-05-10T11:50:07.965Z,0.80
2023-05-10T11:51:43.089Z,0.80
2023-05-10T11:53:15.868Z,0.80
2023-05-10T11:54:53.644Z,0.80
2023-05-10T11:56:27.156Z,0.73
2023-05-10T11:58:03.500Z,0.90
2023-05-10T11:59:36.237Z,1.00
2023-05-10T12:01:11.536Z,0.97
2023-05-10T12:02:44.534Z,0.90
2023-05-10T12:04:17.688Z,0.83
2023-05-10T12:05:50.810Z,1.00
2023-05-10T12:07:23.550Z,0.70
2023-05-10T12:08:56.518Z,0.80
2023-05-10T12:10:29.286Z,1.00
2023-05-10T12:12:01.967Z,0.90
2023-05-10T12:13:34.652Z,1.00
2023-05-10T12:15:12.310Z,0.90
2023-05-10T12:16:46.632Z,0.80
2023-05-10T12:18:25.161Z,0.80
2023-05-10T12:20:01.453Z,0.60
2023-05-10T12:21:34.894Z,0.70
2023-05-10T12:23:10.064Z,0.97
2023-05-10T12:24:42.743Z,0.90
2023-05-10T12:26:15.954Z,0.90
2023-05-10T12:27:53.446Z,0.80
2023-05-10T12:29:26.156Z,1.00
2023-05-10T12:30:59.868Z,1.00
2023-05-10T12:32:43.758Z,1.00
2023-05-10T12:34:25.450Z,0.80
2023-05-10T12:36:01.503Z,0.90
2023-05-10T12:37:36.714Z,1.00
2023-05-10T12:39:09.391Z,1.10
2023-05-10T12:40:42.131Z,1.00
2023-05-10T12:42:15.010Z,1.00
2023-05-10T12:43:47.758Z,0.83
2023-05-10T12:45:20.654Z,1.10
2023-05-10T12:46:53.384Z,0.90
2023-05-10T12:48:29.572Z,1.00
2023-05-10T12:50:03.536Z,0.87
2023-05-10T12:51:36.307Z,0.87
2023-05-10T12:53:09.450Z,1.10
2023-05-10T12:54:42.220Z,1.00
2023-05-10T12:56:14.901Z,1.10
2023-05-10T12:57:47.617Z,0.90
2023-05-10T12:59:20.314Z,1.10
2023-05-10T13:00:53.625Z,1.10
2023-05-10T13:02:26.393Z,1.20
2023-05-10T13:04:00.986Z,1.10
2023-05-10T13:05:33.792Z,1.20
2023-05-10T13:07:06.568Z,1.10
2023-05-10T13:08:39.350Z,1.00
2023-05-10T13:10:12.619Z,1.00
2023-05-10T13:11:46.180Z,1.30
2023-05-10T13:13:19.199Z,1.50
2023-05-10T13:14:51.967Z,2.67
2023-05-10T13:16:24.740Z,2.40
2023-05-10T13:17:57.546Z,2.93
2023-05-10T13:19:31.690Z,1.07
2023-05-10T13:21:04.837Z,1.30
2023-05-10T13:22:40.488Z,0.90
2023-05-10T13:24:14.677Z,1.10
2023-05-10T13:25:47.375Z,1.10
2023-05-10T13:27:20.073Z,1.03
2023-05-10T13:28:52.933Z,1.07
2023-05-10T13:30:26.068Z,1.20
2023-05-10T13:31:58.851Z,1.00
2023-05-10T13:33:31.585Z,1.13
2023-05-10T13:35:06.646Z,1.17
2023-05-10T13:36:39.357Z,1.17
2023-05-10T13:38:12.059Z,1.20
2023-05-10T13:39:44.785Z,1.07
2023-05-10T13:41:17.514Z,1.30
2023-05-10T13:42:50.386Z,1.00
2023-05-10T13:44:23.124Z,1.00
2023-05-10T13:45:55.857Z,1.13
2023-05-10T13:47:28.599Z,1.00
2023-05-10T13:49:01.326Z,1.10
2023-05-10T13:50:35.367Z,0.93
2023-05-10T13:52:08.105Z,1.20
2023-05-10T13:53:40.800Z,1.10
2023-05-10T13:55:14.627Z,1.10
2023-05-10T13:56:49.386Z,1.07
2023-05-10T13:58:22.097Z,1.13
2023-05-10T13:59:55.984Z,0.90
2023-05-10T14:01:30.388Z,1.10
2023-05-10T14:03:03.226Z,1.00
2023-05-10T14:04:36.379Z,1.20
2023-05-10T14:06:10.620Z,1.03
2023-05-10T14:07:43.304Z,1.10
2023-05-10T14:09:16.018Z,1.20
2023-05-10T14:10:49.706Z,1.20
2023-05-10T14:12:22.409Z,1.00
2023-05-10T14:13:55.122Z,1.10
2023-05-10T14:15:27.865Z,0.83
2023-05-10T14:17:00.745Z,1.00
2023-05-10T14:18:33.521Z,1.00
2023-05-10T14:20:07.406Z,1.10
2023-05-10T14:21:41.452Z,1.00
2023-05-10T14:23:14.337Z,1.00
2023-05-10T14:24:48.005Z,0.90
2023-05-10T14:26:21.840Z,1.10
2023-05-10T14:27:55.569Z,1.00
2023-05-10T14:29:28.556Z,1.10
2023-05-10T14:31:01.438Z,0.80
2023-05-10T14:32:34.841Z,1.00
2023-05-10T14:34:07.667Z,1.00
2023-05-10T14:35:40.510Z,0.93
2023-05-10T14:37:16.349Z,1.07
2023-05-10T14:38:49.204Z,1.20
2023-05-10T14:40:22.035Z,1.23
2023-05-10T14:41:55.396Z,1.10
2023-05-10T14:43:28.514Z,1.00
2023-05-10T14:45:01.193Z,0.93
2023-05-10T14:46:35.448Z,1.17
2023-05-10T14:48:12.063Z,1.10
2023-05-10T14:49:44.777Z,0.90
2023-05-10T14:51:17.460Z,0.90
2023-05-10T14:52:51.642Z,1.10
2023-05-10T14:54:24.344Z,0.90
2023-05-10T14:55:57.167Z,1.60
2023-05-10T14:57:30.526Z,1.10
2023-05-10T14:59:04.843Z,0.93
2023-05-10T15:00:38.052Z,1.20
2023-05-10T15:02:11.762Z,1.17
2023-05-10T15:03:45.020Z,1.60
2023-05-10T15:05:18.303Z,1.13
2023-05-10T15:06:51.551Z,1.20
2023-05-10T15:08:25.810Z,1.00
2023-05-10T15:09:58.524Z,1.13
2023-05-10T15:11:31.422Z,1.30
2023-05-10T15:13:06.148Z,1.13
2023-05-10T15:14:38.931Z,1.10
2023-05-10T15:16:11.646Z,1.20
2023-05-10T15:17:44.377Z,1.10
2023-05-10T15:19:17.137Z,1.20
2023-05-10T15:20:49.833Z,1.00
2023-05-10T15:22:23.210Z,1.03
2023-05-10T15:23:57.280Z,1.30
2023-05-10T15:25:29.988Z,1.00
2023-05-10T15:27:02.705Z,1.23
2023-05-10T15:28:35.503Z,1.10
2023-05-10T15:30:09.526Z,1.10
2023-05-10T15:31:42.266Z,0.93
2023-05-10T15:33:14.997Z,1.40
2023-05-10T15:34:47.819Z,1.23
2023-05-10T15:36:20.624Z,0.90
2023-05-10T15:37:53.328Z,1.07
2023-05-10T15:39:27.341Z,1.10
2023-05-10T15:41:00.051Z,1.00
2023-05-10T15:42:33.143Z,1.00
2023-05-10T15:44:06.334Z,1.10
2023-05-10T15:45:39.051Z,1.00
2023-05-10T15:47:11.746Z,1.00
2023-05-10T15:48:44.425Z,1.00
2023-05-10T15:50:17.827Z,1.20
2023-05-10T15:51:50.541Z,1.10
2023-05-10T15:53:23.219Z,0.90
2023-05-10T15:54:57.401Z,0.97
2023-05-10T15:56:30.143Z,1.10
2023-05-10T15:58:02.944Z,1.10
2023-05-10T15:59:36.237Z,0.90
2023-05-10T16:01:09.160Z,1.13
2023-05-10T16:02:42.666Z,1.17
2023-05-10T16:04:15.538Z,1.10
2023-05-10T16:05:48.435Z,1.13
2023-05-10T16:07:21.255Z,1.30
2023-05-10T16:08:54.701Z,1.30
2023-05-10T16:10:28.842Z,1.30
2023-05-10T16:12:02.016Z,1.30
2023-05-10T16:13:35.892Z,1.23
2023-05-10T16:15:09.970Z,1.70
2023-05-10T16:16:43.109Z,1.60
2023-05-10T16:18:17.762Z,1.53
2023-05-10T16:19:50.535Z,1.50
2023-05-10T16:21:23.344Z,1.60
2023-05-10T16:22:56.752Z,1.53
2023-05-10T16:24:29.465Z,1.40
2023-05-10T16:26:03.489Z,1.50
2023-05-10T16:27:36.480Z,1.30
2023-05-10T16:29:09.755Z,1.30
2023-05-10T16:30:42.659Z,1.17
2023-05-10T16:32:15.448Z,1.20
2023-05-10T16:33:48.252Z,1.40
2023-05-10T16:35:22.531Z,1.23
2023-05-10T16:36:55.246Z,0.80
2023-05-10T16:38:28.002Z,1.00
2023-05-10T16:40:01.195Z,0.80
2023-05-10T16:41:35.837Z,1.10
2023-05-10T16:43:08.553Z,0.90
2023-05-10T16:44:41.295Z,0.80
2023-05-10T16:46:14.250Z,0.70
2023-05-10T16:47:47.219Z,1.00
2023-05-10T16:49:19.902Z,0.90
2023-05-10T16:50:52.590Z,0.90
2023-05-10T16:52:25.357Z,0.73
2023-05-10T16:53:58.367Z,0.80
2023-05-10T16:55:31.217Z,0.83
2023-05-10T16:57:05.443Z,0.97
2023-05-10T16:58:38.126Z,0.90
2023-05-10T17:00:12.346Z,0.70
2023-05-10T17:01:46.054Z,0.90
2023-05-10T17:03:19.089Z,0.70
2023-05-10T17:04:53.048Z,0.80
2023-05-10T17:06:25.752Z,0.90
2023-05-10T17:07:58.564Z,0.90
2023-05-10T17:09:31.492Z,0.80
2023-05-10T17:11:04.667Z,0.90
2023-05-10T17:12:38.806Z,0.90
2023-05-10T17:14:11.484Z,0.90
2023-05-10T17:15:46.413Z,0.70
2023-05-10T17:17:19.375Z,0.73
2023-05-10T17:18:52.218Z,0.80
2023-05-10T17:20:24.958Z,0.70
2023-05-10T17:21:57.792Z,0.77
2023-05-10T17:23:30.285Z,0.60
2023-05-10T17:25:03.025Z,0.90
2023-05-10T17:26:35.839Z,0.70
2023-05-10T17:28:10.058Z,0.60
2023-05-10T17:29:43.003Z,0.70
2023-05-10T17:31:15.883Z,0.80
2023-05-10T17:32:48.931Z,0.70
2023-05-10T17:34:21.794Z,0.67
2023-05-10T17:35:54.555Z,0.80
2023-05-10T17:37:27.229Z,0.70
2023-05-10T17:39:00.751Z,0.80
2023-05-10T17:40:33.435Z,0.60
2023-05-10T17:42:06.627Z,0.90
2023-05-10T17:43:40.650Z,0.80
2023-05-10T17:45:13.367Z,0.70
2023-05-10T17:46:46.077Z,0.60
2023-05-10T17:48:18.781Z,0.93
2023-05-10T17:49:51.582Z,0.60
2023-05-10T17:51:24.258Z,0.60
2023-05-10T17:52:56.957Z,0.50
2023-05-10T17:54:29.634Z,0.73
2023-05-10T17:56:02.462Z,0.70
2023-05-10T17:57:37.904Z,0.70
2023-05-10T17:59:11.922Z,0.70
2023-05-10T18:00:44.650Z,0.70
2023-05-10T18:02:17.491Z,0.70
2023-05-10T18:03:51.716Z,0.67
2023-05-10T18:05:24.580Z,0.77
2023-05-10T18:07:01.277Z,0.50
2023-05-10T18:08:34.185Z,0.80
2023-05-10T18:10:08.046Z,0.70
2023-05-10T18:11:40.763Z,0.50
2023-05-10T18:13:13.438Z,0.70
2023-05-10T18:14:47.434Z,0.70
2023-05-10T18:16:20.181Z,0.77
2023-05-10T18:17:53.287Z,0.80
2023-05-10T18:19:26.043Z,0.70
2023-05-10T18:20:58.757Z,0.70
2023-05-10T18:22:31.452Z,0.70
2023-05-10T18:24:04.223Z,0.50
2023-05-10T18:25:36.943Z,0.73
2023-05-10T18:27:10.096Z,0.60
2023-05-10T18:28:42.888Z,0.67
2023-05-10T18:30:17.293Z,0.70
2023-05-10T18:31:49.970Z,0.80
2023-05-10T18:33:22.750Z,0.60
2023-05-10T18:34:56.504Z,0.70
2023-05-10T18:36:29.455Z,0.77
2023-05-10T18:38:02.182Z,0.80
2023-05-10T18:39:35.047Z,0.83
2023-05-10T18:41:08.653Z,0.63
2023-05-10T18:42:41.558Z,0.70
2023-05-10T18:44:14.479Z,0.83
2023-05-10T18:45:48.550Z,1.07
2023-05-10T18:47:21.590Z,0.80
2023-05-10T18:48:55.404Z,0.70
2023-05-10T18:50:28.263Z,0.60
2023-05-10T18:52:00.971Z,0.90
2023-05-10T18:53:33.840Z,0.90
2023-05-10T18:55:08.289Z,0.60
2023-05-10T18:56:44.375Z,0.87
2023-05-10T18:58:17.056Z,0.70
2023-05-10T18:59:50.145Z,0.77
2023-05-10T19:01:24.199Z,0.80
2023-05-10T19:02:56.934Z,0.90
2023-05-10T19:04:29.745Z,0.90
2023-05-10T19:06:01.493Z,0.90
2023-05-10T19:07:34.307Z,0.73
2023-05-10T19:09:07.003Z,0.90
2023-05-10T19:10:39.807Z,1.10
2023-05-10T19:12:12.484Z,0.67
2023-05-10T19:13:45.318Z,0.90
2023-05-10T19:15:20.156Z,1.00
2023-05-10T19:16:55.996Z,0.83
2023-05-10T19:18:29.161Z,0.80
2023-05-10T19:20:03.078Z,0.80
2023-05-10T19:21:36.024Z,0.80
2023-05-10T19:23:10.089Z,0.83
2023-05-10T19:24:42.981Z,0.80
2023-05-10T19:26:16.620Z,0.90
2023-05-10T19:27:49.313Z,1.20
2023-05-10T19:29:22.683Z,0.97
2023-05-10T19:30:55.366Z,0.90
2023-05-10T19:32:29.713Z,0.83
2023-05-10T19:34:03.561Z,1.00
2023-05-10T19:35:37.321Z,0.90
2023-05-10T19:37:10.099Z,0.97
2023-05-10T19:38:42.838Z,1.33
2023-05-10T19:40:17.182Z,1.10
2023-05-10T19:41:50.388Z,1.00
2023-05-10T19:43:23.116Z,0.97
2023-05-10T19:44:55.864Z,0.90
2023-05-10T19:46:28.606Z,1.10
2023-05-10T19:48:03.016Z,0.93
2023-05-10T19:49:36.577Z,0.97
2023-05-10T19:51:10.244Z,0.80
2023-05-10T19:52:43.167Z,1.10
2023-05-10T19:54:15.849Z,1.40
2023-05-10T19:55:48.770Z,1.20
2023-05-10T19:57:21.778Z,0.90
2023-05-10T19:58:54.466Z,1.03
2023-05-10T20:00:28.151Z,1.10
2023-05-10T20:02:00.862Z,1.00
2023-05-10T20:03:35.025Z,1.10
2023-05-10T20:05:08.762Z,1.10
2023-05-10T20:06:41.437Z,1.07
2023-05-10T20:08:14.133Z,1.13
2023-05-10T20:09:46.867Z,1.10
2023-05-10T20:11:19.627Z,1.00
2023-05-10T20:12:53.821Z,1.00
2023-05-10T20:14:26.726Z,1.00
2023-05-10T20:16:02.145Z,1.00
2023-05-10T20:17:35.924Z,1.07
2023-05-10T20:19:10.975Z,0.93
2023-05-10T20:20:43.968Z,0.80
2023-05-10T20:22:16.676Z,1.20
2023-05-10T20:23:49.375Z,0.90
2023-05-10T20:25:22.151Z,0.90
2023-05-10T20:26:54.815Z,1.07
2023-05-10T20:28:28.253Z,1.10
2023-05-10T20:30:00.939Z,1.40
2023-05-10T20:31:33.746Z,1.00
2023-05-10T20:33:06.693Z,1.23
2023-05-10T20:34:40.756Z,0.90
2023-05-10T20:36:13.686Z,1.90
2023-05-10T20:37:48.253Z,1.80
2023-05-10T20:39:21.350Z,1.20
2023-05-10T20:40:54.058Z,1.53
2023-05-10T20:42:26.958Z,1.23
2023-05-10T20:44:00.344Z,1.67
2023-05-10T20:45:33.068Z,0.97
2023-05-10T20:47:06.466Z,1.27
2023-05-10T20:48:39.213Z,1.30
2023-05-10T20:50:12.369Z,1.27
2023-05-10T20:51:45.089Z,1.17
2023-05-10T20:53:18.413Z,1.00